Time;durP1;ratioP1;P1;durP2;ratioP2;P2;SDS_P1;SDS_P2;PMS_P1;PMS_P2;Temp;Humidity;BMP_temperature;BMP_pressure;BME280_temperature;BME280_humidity;BME280_pressure;Samples;Min_cycle;Max_cycle;Signal;HPM_P1;HPM_P2
2022/09/22 00:01:54;;;;;;;;;;;21.20;42.70;;;;;;5070784;28;19921;-58
2022/09/22 00:04:20;;;;;;;;;;;21.20;42.80;;;;;;5083176;28;19956;-58
2022/09/22 00:06:50;;;;;;;;;;;21.20;42.70;;;;;;5070261;28;19948;-58
2022/09/22 00:09:17;;;;;;;;;;;21.20;42.80;;;;;;5069828;28;19943;-58
2022/09/22 00:11:44;;;;;;;;;;;21.20;42.80;;;;;;5063319;28;20452;-58
2022/09/22 00:14:13;;;;;;;;;;;21.20;42.80;;;;;;5083686;28;19959;-58
2022/09/22 00:16:41;;;;;;;;;;;21.20;42.80;;;;;;5085501;28;19967;-59
2022/09/22 00:19:07;;;;;;;;;;;21.20;42.80;;;;;;5085837;28;20013;-59
2022/09/22 00:21:34;;;;;;;;;;;21.20;42.90;;;;;;5099550;28;19960;-59
2022/09/22 00:24:01;;;;;;;;;;;21.20;42.90;;;;;;5085553;28;19954;-58
2022/09/22 00:26:30;;;;;;;;;;;21.10;42.80;;;;;;5070309;28;20427;-59
2022/09/22 00:28:56;;;;;;;;;;;21.20;42.90;;;;;;5085929;28;20358;-58
2022/09/22 00:31:25;;;;;;;;;;;21.20;42.90;;;;;;5100196;28;19920;-59
2022/09/22 00:33:52;;;;;;;;;;;21.10;42.80;;;;;;5085436;28;19921;-58
2022/09/22 00:36:20;;;;;;;;;;;21.10;42.90;;;;;;5100887;28;19959;-58
2022/09/22 00:38:49;;;;;;;;;;;21.10;42.90;;;;;;5085395;28;19925;-58
2022/09/22 00:41:17;;;;;;;;;;;21.10;42.80;;;;;;5100412;28;19927;-57
2022/09/22 00:43:46;;;;;;;;;;;21.10;42.90;;;;;;5067080;28;19921;-58
2022/09/22 00:46:13;;;;;;;;;;;21.10;42.90;;;;;;5085311;28;19951;-58
2022/09/22 00:48:44;;;;;;;;;;;21.10;42.90;;;;;;5102483;28;19925;-58
2022/09/22 00:51:10;;;;;;;;;;;21.10;42.90;;;;;;5101809;27;19964;-58
2022/09/22 00:53:37;;;;;;;;;;;21.10;42.90;;;;;;5083573;28;20190;-57
2022/09/22 00:56:05;;;;;;;;;;;21.10;42.90;;;;;;5085122;28;19926;-60
2022/09/22 00:58:32;;;;;;;;;;;21.10;42.90;;;;;;5068645;28;20007;-60
2022/09/22 01:00:59;;;;;;;;;;;21.10;42.90;;;;;;5099810;28;19988;-58
2022/09/22 01:03:26;;;;;;;;;;;21.10;42.90;;;;;;5069361;28;20328;-59
2022/09/22 01:05:54;;;;;;;;;;;21.10;43.50;;;;;;5068203;28;19967;-59
2022/09/22 01:08:21;;;;;;;;;;;21.10;42.90;;;;;;5067332;28;19932;-58
2022/09/22 01:10:47;;;;;;;;;;;21.10;42.90;;;;;;5085106;28;19927;-58
2022/09/22 01:13:20;;;;;;;;;;;21.10;42.90;;;;;;5069785;28;19921;-59
2022/09/22 01:15:49;;;;;;;;;;;21.10;43.00;;;;;;5066097;28;19920;-58
2022/09/22 01:18:18;;;;;;;;;;;21.10;43.00;;;;;;5096936;28;19936;-58
2022/09/22 01:21:06;;;;;;;;;;;21.10;42.90;;;;;;5084584;28;19920;-58
2022/09/22 01:23:38;;;;;;;;;;;21.10;43.00;;;;;;5066820;28;19924;-58
2022/09/22 01:26:15;;;;;;;;;;;21.10;43.00;;;;;;5080642;28;20191;-58
2022/09/22 01:28:46;;;;;;;;;;;21.10;43.00;;;;;;5084887;28;20019;-58
2022/09/22 01:31:14;;;;;;;;;;;21.10;43.00;;;;;;5069442;28;19968;-60
2022/09/22 01:33:41;;;;;;;;;;;21.10;43.00;;;;;;5100501;28;20011;-58
2022/09/22 01:36:20;;;;;;;;;;;21.10;43.00;;;;;;5068052;28;20369;-59
2022/09/22 01:38:49;;;;;;;;;;;21.10;43.00;;;;;;5081957;28;19921;-58
2022/09/22 01:41:17;;;;;;;;;;;21.10;43.00;;;;;;5083850;28;19925;-58
2022/09/22 01:43:46;;;;;;;;;;;21.10;43.00;;;;;;5098717;28;19921;-58
2022/09/22 01:46:16;;;;;;;;;;;21.10;43.10;;;;;;5069353;28;19935;-59
2022/09/22 01:48:43;;;;;;;;;;;21.10;43.10;;;;;;5067642;28;20389;-58
2022/09/22 01:51:12;;;;;;;;;;;21.10;43.00;;;;;;5100300;28;19920;-57
2022/09/22 01:53:41;;;;;;;;;;;21.10;43.10;;;;;;5067482;28;19921;-58
2022/09/22 01:56:07;;;;;;;;;;;21.10;43.10;;;;;;5064432;28;20024;-59
2022/09/22 01:58:35;;;;;;;;;;;21.00;43.00;;;;;;5066952;28;20019;-58
2022/09/22 02:01:04;;;;;;;;;;;21.10;43.10;;;;;;5097396;28;19999;-58
2022/09/22 02:03:34;;;;;;;;;;;21.00;43.00;;;;;;5066569;28;19968;-58
2022/09/22 02:06:03;;;;;;;;;;;21.00;43.00;;;;;;5084092;28;20027;-58
2022/09/22 02:08:33;;;;;;;;;;;21.00;43.00;;;;;;5077847;28;19927;-58
2022/09/22 02:11:02;;;;;;;;;;;21.00;43.00;;;;;;5084563;28;20455;-59
2022/09/22 02:13:28;;;;;;;;;;;21.00;43.00;;;;;;5080025;28;19930;-59
2022/09/22 02:16:01;;;;;;;;;;;21.00;43.00;;;;;;5072500;28;20361;-58
2022/09/22 02:18:28;;;;;;;;;;;21.00;43.00;;;;;;5104976;28;19970;-58
2022/09/22 02:20:57;;;;;;;;;;;21.00;43.00;;;;;;5086253;28;19970;-58
2022/09/22 02:23:24;;;;;;;;;;;21.00;43.10;;;;;;5102567;27;19939;-58
2022/09/22 02:25:50;;;;;;;;;;;21.00;43.00;;;;;;5082857;28;19924;-58
2022/09/22 02:28:18;;;;;;;;;;;21.00;43.10;;;;;;5105209;28;19982;-58
2022/09/22 02:30:45;;;;;;;;;;;21.00;43.10;;;;;;5071969;28;19955;-58
2022/09/22 02:33:12;;;;;;;;;;;21.00;43.00;;;;;;5070951;28;20401;-58
2022/09/22 02:35:39;;;;;;;;;;;21.00;43.00;;;;;;5086478;28;19924;-58
2022/09/22 02:38:08;;;;;;;;;;;21.00;43.00;;;;;;5071739;28;19928;-59
2022/09/22 02:40:37;;;;;;;;;;;21.00;43.00;;;;;;5069405;28;20289;-59
2022/09/22 02:43:06;;;;;;;;;;;21.00;43.00;;;;;;5087922;28;19932;-58
2022/09/22 02:45:34;;;;;;;;;;;21.00;43.00;;;;;;5087503;28;20017;-58
2022/09/22 02:48:01;;;;;;;;;;;21.00;43.00;;;;;;5102888;28;19971;-58
2022/09/22 02:50:28;;;;;;;;;;;21.00;43.00;;;;;;5087232;28;19960;-58
2022/09/22 02:52:56;;;;;;;;;;;21.00;43.10;;;;;;5087707;28;20016;-59
2022/09/22 02:55:24;;;;;;;;;;;21.00;43.00;;;;;;5086249;28;20365;-58
2022/09/22 02:57:51;;;;;;;;;;;21.00;43.00;;;;;;5085458;28;20020;-59
2022/09/22 03:00:18;;;;;;;;;;;21.00;43.00;;;;;;5070941;28;19998;-58
2022/09/22 03:02:44;;;;;;;;;;;21.00;43.10;;;;;;5071725;28;19998;-58
2022/09/22 03:05:11;;;;;;;;;;;21.00;43.10;;;;;;5071562;28;20019;-61
2022/09/22 03:07:38;;;;;;;;;;;21.00;43.10;;;;;;5086244;28;20107;-59
2022/09/22 03:10:05;;;;;;;;;;;21.00;43.10;;;;;;5087198;28;19973;-60
2022/09/22 03:12:33;;;;;;;;;;;21.00;43.10;;;;;;5071620;28;19920;-59
2022/09/22 03:15:00;;;;;;;;;;;21.00;43.10;;;;;;5070302;28;19956;-59
2022/09/22 03:17:26;;;;;;;;;;;21.00;43.10;;;;;;5102020;28;20377;-59
2022/09/22 03:19:53;;;;;;;;;;;21.00;43.10;;;;;;5086564;28;20019;-59
2022/09/22 03:22:20;;;;;;;;;;;21.00;43.10;;;;;;5071371;28;19943;-59
2022/09/22 03:24:46;;;;;;;;;;;21.00;43.10;;;;;;5086416;28;19943;-59
2022/09/22 03:27:13;;;;;;;;;;;21.00;43.10;;;;;;5086580;28;20344;-59
2022/09/22 03:29:41;;;;;;;;;;;20.90;43.00;;;;;;5068983;28;19951;-60
2022/09/22 03:32:08;;;;;;;;;;;20.90;43.00;;;;;;5086057;28;20014;-59
2022/09/22 03:34:36;;;;;;;;;;;20.90;43.00;;;;;;5103417;28;19974;-59
2022/09/22 03:37:03;;;;;;;;;;;20.90;43.00;;;;;;5086423;28;19986;-60
2022/09/22 03:39:30;;;;;;;;;;;20.90;43.00;;;;;;5068456;28;19970;-59
2022/09/22 03:41:57;;;;;;;;;;;20.90;43.00;;;;;;5086836;28;19956;-59
2022/09/22 03:44:25;;;;;;;;;;;20.90;43.00;;;;;;5070222;28;19990;-59
2022/09/22 03:46:54;;;;;;;;;;;20.90;43.10;;;;;;5081483;28;19987;-58
2022/09/22 03:49:20;;;;;;;;;;;20.90;43.00;;;;;;5069310;28;20008;-59
2022/09/22 03:51:47;;;;;;;;;;;20.90;43.00;;;;;;5102358;28;19970;-59
2022/09/22 03:54:13;;;;;;;;;;;20.90;43.00;;;;;;5071111;28;19963;-59
2022/09/22 03:56:40;;;;;;;;;;;20.90;43.10;;;;;;5086119;28;19976;-59
2022/09/22 03:59:09;;;;;;;;;;;20.90;43.00;;;;;;5099022;28;20009;-59
2022/09/22 04:01:35;;;;;;;;;;;20.90;43.00;;;;;;5103352;28;19920;-59
2022/09/22 04:04:04;;;;;;;;;;;20.90;43.10;;;;;;5084894;28;20022;-58
2022/09/22 04:06:30;;;;;;;;;;;20.90;43.10;;;;;;5066583;28;19925;-59
2022/09/22 04:08:57;;;;;;;;;;;20.90;43.10;;;;;;5085733;28;20417;-58
2022/09/22 04:11:24;;;;;;;;;;;20.90;43.10;;;;;;5102749;28;19994;-59
2022/09/22 04:13:50;;;;;;;;;;;20.90;43.00;;;;;;5083425;28;19920;-58
2022/09/22 04:16:17;;;;;;;;;;;20.90;43.00;;;;;;5085843;28;20011;-58
2022/09/22 04:18:44;;;;;;;;;;;20.90;43.00;;;;;;5102682;28;19974;-58
2022/09/22 04:21:12;;;;;;;;;;;20.90;43.00;;;;;;5080768;28;19966;-57
2022/09/22 04:23:39;;;;;;;;;;;20.90;43.00;;;;;;5069182;28;19924;-58
2022/09/22 04:26:05;;;;;;;;;;;20.90;43.00;;;;;;5083817;28;19920;-59
2022/09/22 04:28:32;;;;;;;;;;;20.90;43.00;;;;;;5069008;28;20019;-58
2022/09/22 04:30:59;;;;;;;;;;;20.90;43.00;;;;;;5101886;28;19943;-58
2022/09/22 04:33:25;;;;;;;;;;;20.90;43.00;;;;;;5085149;28;20156;-58
2022/09/22 04:35:52;;;;;;;;;;;20.90;43.00;;;;;;5070159;28;19920;-58
2022/09/22 04:38:20;;;;;;;;;;;20.90;43.00;;;;;;5069765;28;19956;-58
2022/09/22 04:40:48;;;;;;;;;;;20.90;43.00;;;;;;5068625;28;19961;-58
2022/09/22 04:43:15;;;;;;;;;;;20.80;43.00;;;;;;5085855;28;19924;-57
2022/09/22 04:45:42;;;;;;;;;;;20.90;43.00;;;;;;5102471;28;19924;-58
2022/09/22 04:48:09;;;;;;;;;;;20.80;43.00;;;;;;5068829;28;19974;-58
2022/09/22 04:50:36;;;;;;;;;;;20.90;43.00;;;;;;5101128;28;19924;-59
2022/09/22 04:53:02;;;;;;;;;;;20.90;43.10;;;;;;5068323;28;19967;-58
2022/09/22 04:55:30;;;;;;;;;;;20.80;43.00;;;;;;5102290;28;20015;-59
2022/09/22 04:57:59;;;;;;;;;;;20.80;43.10;;;;;;5083202;28;22637;-58
2022/09/22 05:00:26;;;;;;;;;;;20.80;43.00;;;;;;5082666;28;20382;-58
2022/09/22 05:02:53;;;;;;;;;;;20.80;43.00;;;;;;5100217;28;19924;-59
2022/09/22 05:05:19;;;;;;;;;;;20.80;43.00;;;;;;5081456;28;19974;-58
2022/09/22 05:07:46;;;;;;;;;;;20.80;43.00;;;;;;5081661;28;19921;-58
2022/09/22 05:10:14;;;;;;;;;;;20.80;43.00;;;;;;5085067;28;19927;-57
2022/09/22 05:12:42;;;;;;;;;;;20.80;43.00;;;;;;5064974;28;19924;-58
2022/09/22 05:15:09;;;;;;;;;;;20.80;43.10;;;;;;5102171;28;19962;-58
2022/09/22 05:17:36;;;;;;;;;;;20.80;43.10;;;;;;5085068;28;20040;-58
2022/09/22 05:20:03;;;;;;;;;;;20.80;43.10;;;;;;5069331;28;19931;-59
2022/09/22 05:22:30;;;;;;;;;;;20.90;43.10;;;;;;5065772;28;19991;-58
2022/09/22 05:24:56;;;;;;;;;;;20.80;43.10;;;;;;5067358;28;19960;-58
2022/09/22 05:27:23;;;;;;;;;;;20.80;43.00;;;;;;5085053;28;19990;-59
2022/09/22 05:29:51;;;;;;;;;;;20.80;43.10;;;;;;5067864;28;19920;-58
2022/09/22 05:32:18;;;;;;;;;;;20.90;43.10;;;;;;5085154;28;19920;-58
2022/09/22 05:34:45;;;;;;;;;;;20.80;43.10;;;;;;5101393;28;19921;-58
2022/09/22 05:37:12;;;;;;;;;;;20.80;43.10;;;;;;5067262;28;19966;-58
2022/09/22 05:39:38;;;;;;;;;;;20.80;43.10;;;;;;5067182;28;19959;-59
2022/09/22 05:42:05;;;;;;;;;;;20.80;43.10;;;;;;5085324;28;19956;-58
2022/09/22 05:44:32;;;;;;;;;;;20.80;43.10;;;;;;5101292;28;19920;-58
2022/09/22 05:47:00;;;;;;;;;;;20.80;43.10;;;;;;5085133;28;20178;-59
2022/09/22 05:49:26;;;;;;;;;;;20.80;43.10;;;;;;5103533;28;19932;-59
2022/09/22 05:51:56;;;;;;;;;;;20.80;43.10;;;;;;5105645;28;19994;-58
2022/09/22 05:54:22;;;;;;;;;;;20.80;43.20;;;;;;5066527;28;19925;-58
2022/09/22 05:56:49;;;;;;;;;;;20.80;43.20;;;;;;5087133;28;19973;-59
2022/09/22 05:59:18;;;;;;;;;;;20.80;43.20;;;;;;5105833;28;19924;-58
2022/09/22 06:01:44;;;;;;;;;;;20.80;43.20;;;;;;5085241;28;20012;-59
2022/09/22 06:04:12;;;;;;;;;;;20.80;43.20;;;;;;5072813;28;20018;-58
2022/09/22 06:06:40;;;;;;;;;;;20.80;43.20;;;;;;5066954;28;20416;-58
2022/09/22 06:09:07;;;;;;;;;;;20.80;43.20;;;;;;5088405;28;19927;-59
2022/09/22 06:11:34;;;;;;;;;;;20.80;43.20;;;;;;5072725;28;20403;-60
2022/09/22 06:14:00;;;;;;;;;;;20.80;43.20;;;;;;5071922;28;19952;-59
2022/09/22 06:16:27;;;;;;;;;;;20.80;43.20;;;;;;5102457;28;19954;-59
2022/09/22 06:18:54;;;;;;;;;;;20.80;43.30;;;;;;5105573;28;19928;-59
2022/09/22 06:21:23;;;;;;;;;;;20.80;43.30;;;;;;5088184;28;19924;-58
2022/09/22 06:23:50;;;;;;;;;;;20.80;43.20;;;;;;5104554;27;19947;-60
2022/09/22 06:26:17;;;;;;;;;;;20.80;43.30;;;;;;5102291;28;20027;-58
2022/09/22 06:28:43;;;;;;;;;;;20.80;43.30;;;;;;5087785;28;20213;-58
2022/09/22 06:31:10;;;;;;;;;;;20.80;43.30;;;;;;5088210;28;19927;-58
2022/09/22 06:33:37;;;;;;;;;;;20.80;43.30;;;;;;5070278;28;19932;-59
2022/09/22 06:36:05;;;;;;;;;;;20.80;43.30;;;;;;5094395;28;19924;-60
2022/09/22 06:38:34;;;;;;;;;;;20.80;43.30;;;;;;5088761;28;19927;-58
2022/09/22 06:41:01;;;;;;;;;;;20.80;43.30;;;;;;5088696;28;19921;-58
2022/09/22 06:43:28;;;;;;;;;;;20.80;43.30;;;;;;5069630;28;19921;-59
2022/09/22 06:45:58;;;;;;;;;;;20.80;43.40;;;;;;5060081;28;19925;-58
2022/09/22 06:48:25;;;;;;;;;;;20.80;43.40;;;;;;5095893;28;19952;-58
2022/09/22 06:50:52;;;;;;;;;;;20.80;43.40;;;;;;5057031;28;19964;-60
2022/09/22 06:53:19;;;;;;;;;;;20.80;43.40;;;;;;5067792;28;20913;-59
2022/09/22 06:55:50;;;;;;;;;;;20.80;43.40;;;;;;5072928;28;19929;-58
2022/09/22 06:58:17;;;;;;;;;;;20.80;43.40;;;;;;5087343;28;20026;-59
2022/09/22 07:00:43;;;;;;;;;;;20.80;43.40;;;;;;5071654;28;19925;-58
2022/09/22 07:03:13;;;;;;;;;;;20.80;43.50;;;;;;5102771;28;19950;-58
2022/09/22 07:05:41;;;;;;;;;;;20.80;43.50;;;;;;5088202;28;19920;-59
2022/09/22 07:08:08;;;;;;;;;;;20.80;43.50;;;;;;5087104;28;19920;-59
2022/09/22 07:10:36;;;;;;;;;;;20.80;43.50;;;;;;5087690;28;20431;-59
2022/09/22 07:13:05;;;;;;;;;;;20.80;43.50;;;;;;5104905;28;19920;-58
2022/09/22 07:15:34;;;;;;;;;;;20.80;43.50;;;;;;5085258;28;19920;-59
2022/09/22 07:18:01;;;;;;;;;;;20.80;43.60;;;;;;5102254;28;19928;-59
2022/09/22 07:20:27;;;;;;;;;;;20.80;43.60;;;;;;5066806;28;19983;-59
2022/09/22 07:22:59;;;;;;;;;;;20.80;43.60;;;;;;5085127;28;20031;-59
2022/09/22 07:25:27;;;;;;;;;;;20.90;43.70;;;;;;5082349;28;19920;-59
2022/09/22 07:27:53;;;;;;;;;;;20.80;43.60;;;;;;5069768;28;19933;-58
2022/09/22 07:30:21;;;;;;;;;;;20.90;43.70;;;;;;5083086;28;20015;-57
2022/09/22 07:32:48;;;;;;;;;;;20.90;43.70;;;;;;5102070;28;20011;-58
2022/09/22 07:35:15;;;;;;;;;;;20.90;43.70;;;;;;5085826;28;19971;-58
2022/09/22 07:37:41;;;;;;;;;;;20.90;43.70;;;;;;5070151;28;20002;-59
2022/09/22 07:40:08;;;;;;;;;;;20.90;43.80;;;;;;5070975;28;20349;-58
2022/09/22 07:42:35;;;;;;;;;;;20.90;43.70;;;;;;5070886;28;19933;-58
2022/09/22 07:45:14;;;;;;;;;;;20.90;43.70;;;;;;5084899;28;19946;-58
2022/09/22 07:50:28;;;;;;;;;;;20.90;43.80;;;;;;5067365;28;19926;-59
2022/09/22 07:52:55;;;;;;;;;;;20.90;44.40;;;;;;5068942;28;19920;-60
2022/09/22 07:55:23;;;;;;;;;;;20.90;43.80;;;;;;5069602;28;19955;-59
2022/09/22 07:57:53;;;;;;;;;;;20.90;43.80;;;;;;5085807;28;19978;-59
2022/09/22 08:00:20;;;;;;;;;;;20.90;43.80;;;;;;5068323;28;19920;-59
2022/09/22 08:02:53;;;;;;;;;;;20.90;43.80;;;;;;5085414;28;19959;-59
2022/09/22 08:05:19;;;;;;;;;;;20.90;43.80;;;;;;5068692;28;19920;-58
2022/09/22 08:07:46;;;;;;;;;;;20.90;43.80;;;;;;5085958;28;19921;-58
2022/09/22 08:10:14;;;;;;;;;;;20.90;43.90;;;;;;5065637;28;20083;-59
2022/09/22 08:12:41;;;;;;;;;;;20.90;43.80;;;;;;5068876;28;19921;-59
2022/09/22 08:15:08;;;;;;;;;;;20.90;43.90;;;;;;5069260;28;20328;-59
2022/09/22 08:17:36;;;;;;;;;;;20.90;43.90;;;;;;5068957;28;20019;-59
2022/09/22 08:20:05;;;;;;;;;;;20.90;43.90;;;;;;5084536;28;19994;-58
2022/09/22 08:22:33;;;;;;;;;;;20.90;43.90;;;;;;5068772;28;19966;-59
2022/09/22 08:25:00;;;;;;;;;;;20.90;43.90;;;;;;5068258;28;19931;-58
2022/09/22 08:27:26;;;;;;;;;;;20.90;43.90;;;;;;5064327;28;20016;-59
2022/09/22 08:29:53;;;;;;;;;;;20.90;43.90;;;;;;5068687;28;19920;-58
2022/09/22 08:32:21;;;;;;;;;;;21.00;44.00;;;;;;5068754;28;19924;-59
2022/09/22 08:34:47;;;;;;;;;;;20.90;43.90;;;;;;5061818;28;19925;-58
2022/09/22 08:37:15;;;;;;;;;;;21.00;44.10;;;;;;5086010;28;19966;-58
2022/09/22 08:39:43;;;;;;;;;;;21.00;44.10;;;;;;5086014;28;19921;-58
2022/09/22 08:42:10;;;;;;;;;;;21.00;44.10;;;;;;5069400;28;19926;-59
2022/09/22 08:44:39;;;;;;;;;;;20.90;44.80;;;;;;5086192;28;20405;-59
2022/09/22 08:51:50;;;;;;;;;;;20.90;44.20;;;;;;5067442;28;20357;-59
2022/09/22 08:53:08;;;;;;;;;;;20.90;44.30;;;;;;5069202;28;20015;-59
2022/09/22 08:55:35;;;;;;;;;;;20.90;44.40;;;;;;5057785;28;19998;-58
2022/09/22 08:58:06;;;;;;;;;;;20.80;44.50;;;;;;5082896;28;20012;-59
2022/09/22 09:00:32;;;;;;;;;;;20.80;44.50;;;;;;5099883;28;19991;-60
2022/09/22 09:03:02;;;;;;;;;;;20.80;44.50;;;;;;5099721;28;19963;-58
2022/09/22 09:05:43;;;;;;;;;;;20.90;44.60;;;;;;5082551;28;19920;-58
2022/09/22 09:08:14;;;;;;;;;;;20.80;44.50;;;;;;5083768;28;19925;-59
2022/09/22 09:10:44;;;;;;;;;;;20.80;44.50;;;;;;5085240;28;20003;-58
2022/09/22 09:13:15;;;;;;;;;;;20.80;44.60;;;;;;5102500;28;19928;-57
2022/09/22 09:15:46;;;;;;;;;;;20.90;44.80;;;;;;5101638;28;19973;-58
2022/09/22 09:18:13;;;;;;;;;;;20.80;44.70;;;;;;5081105;28;20378;-58
2022/09/22 09:20:43;;;;;;;;;;;20.80;44.70;;;;;;5084072;28;19927;-58
2022/09/22 09:23:10;;;;;;;;;;;20.80;44.70;;;;;;5069779;28;19924;-60
2022/09/22 09:25:39;;;;;;;;;;;20.80;44.80;;;;;;5071744;28;20019;-60
2022/09/22 09:28:06;;;;;;;;;;;20.80;44.80;;;;;;5086060;28;19920;-59
2022/09/22 09:30:35;;;;;;;;;;;20.80;44.60;;;;;;5064951;28;19928;-60
2022/09/22 09:33:01;;;;;;;;;;;20.70;44.00;;;;;;5066809;28;20456;-59
2022/09/22 09:35:31;;;;;;;;;;;20.70;44.50;;;;;;5089560;28;20306;-60
2022/09/22 09:37:58;;;;;;;;;;;20.70;44.60;;;;;;5078521;28;19948;-59
2022/09/22 09:40:24;;;;;;;;;;;20.70;44.70;;;;;;5069847;28;20388;-60
2022/09/22 09:42:55;;;;;;;;;;;20.60;44.80;;;;;;5073084;28;20014;-60
2022/09/22 09:45:24;;;;;;;;;;;20.60;44.80;;;;;;5090968;28;19956;-60
2022/09/22 09:48:04;;;;;;;;;;;20.60;44.80;;;;;;5082024;28;19985;-59
2022/09/22 09:50:31;;;;;;;;;;;20.60;44.80;;;;;;5085582;28;20011;-59
2022/09/22 09:52:58;;;;;;;;;;;20.60;44.90;;;;;;5089018;28;19952;-60
2022/09/22 09:55:25;;;;;;;;;;;20.60;44.80;;;;;;5071246;28;19924;-60
2022/09/22 09:58:03;;;;;;;;;;;20.60;44.90;;;;;;5071831;28;20027;-60
2022/09/22 10:00:32;;;;;;;;;;;20.60;44.90;;;;;;5068574;28;20398;-59
2022/09/22 10:03:05;;;;;;;;;;;20.60;44.90;;;;;;5070535;28;19920;-59
2022/09/22 10:05:36;;;;;;;;;;;20.60;44.90;;;;;;5069240;28;19978;-61
2022/09/22 10:08:03;;;;;;;;;;;20.60;44.80;;;;;;5069201;28;19924;-60
2022/09/22 10:10:31;;;;;;;;;;;20.60;44.80;;;;;;5088298;28;19952;-61
2022/09/22 10:13:14;;;;;;;;;;;20.70;44.90;;;;;;5071674;28;19920;-60
2022/09/22 10:15:41;;;;;;;;;;;20.70;44.90;;;;;;5088110;28;19927;-60
2022/09/22 10:18:26;;;;;;;;;;;20.70;44.90;;;;;;5087757;28;19926;-59
2022/09/22 10:20:58;;;;;;;;;;;20.70;44.80;;;;;;5066522;28;19928;-59
2022/09/22 10:23:25;;;;;;;;;;;20.70;44.80;;;;;;5101843;27;19960;-60
2022/09/22 10:25:51;;;;;;;;;;;20.70;44.80;;;;;;5086368;28;19929;-59
2022/09/22 10:28:20;;;;;;;;;;;20.70;44.70;;;;;;5085619;28;19931;-59
2022/09/22 10:30:48;;;;;;;;;;;20.80;44.80;;;;;;5071110;28;19994;-60
2022/09/22 10:33:16;;;;;;;;;;;20.80;44.80;;;;;;5083549;28;19977;-60
2022/09/22 10:35:43;;;;;;;;;;;20.80;44.80;;;;;;5069577;28;19927;-60
2022/09/22 10:38:20;;;;;;;;;;;20.80;44.70;;;;;;5068685;28;19951;-60
2022/09/22 10:40:49;;;;;;;;;;;20.80;44.70;;;;;;5065634;28;19970;-60
2022/09/22 10:43:21;;;;;;;;;;;20.80;44.70;;;;;;5066365;28;19920;-60
2022/09/22 10:45:52;;;;;;;;;;;20.80;44.70;;;;;;5086129;28;19929;-59
2022/09/22 10:48:20;;;;;;;;;;;20.80;44.70;;;;;;5082897;28;19975;-60
2022/09/22 10:50:50;;;;;;;;;;;20.80;44.60;;;;;;5087509;28;19951;-60
2022/09/22 10:53:41;;;;;;;;;;;20.80;44.60;;;;;;5087471;28;19920;-59
2022/09/22 10:56:12;;;;;;;;;;;20.90;44.70;;;;;;5066704;28;20019;-59
2022/09/22 10:58:46;;;;;;;;;;;20.90;44.60;;;;;;5086503;28;19974;-59
2022/09/22 11:01:17;;;;;;;;;;;20.90;44.60;;;;;;5087234;28;19920;-59
2022/09/22 11:03:51;;;;;;;;;;;20.90;44.60;;;;;;5063879;28;19939;-59
2022/09/22 11:14:48;;;;;;;;;;;21.00;44.50;;;;;;5104295;28;20015;-59
2022/09/22 11:17:20;;;;;;;;;;;21.00;44.60;;;;;;5070118;28;20412;-59
2022/09/22 11:20:00;;;;;;;;;;;20.90;44.50;;;;;;5063289;28;19925;-60
2022/09/22 11:22:47;;;;;;;;;;;21.00;44.50;;;;;;5067961;28;20328;-60
2022/09/22 11:25:21;;;;;;;;;;;21.00;44.50;;;;;;5084307;28;19949;-60
2022/09/22 11:27:50;;;;;;;;;;;21.00;44.50;;;;;;5086696;28;19925;-60
2022/09/22 11:30:21;;;;;;;;;;;21.00;44.50;;;;;;5068816;28;19933;-61
2022/09/22 11:33:03;;;;;;;;;;;21.00;44.50;;;;;;5067988;28;20006;-61
2022/09/22 11:35:54;;;;;;;;;;;21.00;44.50;;;;;;5067626;28;19925;-62
2022/09/22 11:38:25;;;;;;;;;;;21.00;44.50;;;;;;5065300;28;19986;-60
2022/09/22 11:40:55;;;;;;;;;;;21.00;44.30;;;;;;5071328;28;19960;-60
2022/09/22 11:43:29;;;;;;;;;;;21.00;44.30;;;;;;5097398;28;19956;-60
2022/09/22 11:45:59;;;;;;;;;;;21.00;44.20;;;;;;5071161;28;19929;-60
2022/09/22 11:48:29;;;;;;;;;;;21.00;44.00;;;;;;5070204;28;19975;-60
2022/09/22 11:50:59;;;;;;;;;;;21.00;43.90;;;;;;5080542;28;19921;-60
2022/09/22 11:53:42;;;;;;;;;;;21.00;43.80;;;;;;5086074;28;19985;-61
2022/09/22 11:56:14;;;;;;;;;;;21.00;43.70;;;;;;5069257;28;19928;-61
2022/09/22 11:58:41;;;;;;;;;;;21.00;43.70;;;;;;5069365;28;20015;-60
2022/09/22 12:01:09;;;;;;;;;;;20.90;43.60;;;;;;5070313;28;19960;-60
2022/09/22 12:03:38;;;;;;;;;;;20.90;43.60;;;;;;5065729;28;20067;-60
2022/09/22 12:06:05;;;;;;;;;;;20.90;43.70;;;;;;5066277;28;20042;-60
2022/09/22 12:08:34;;;;;;;;;;;20.90;43.70;;;;;;5065601;28;20342;-60
2022/09/22 12:11:00;;;;;;;;;;;20.90;43.80;;;;;;5084599;28;19920;-60
2022/09/22 12:13:27;;;;;;;;;;;20.90;43.80;;;;;;5085328;28;19959;-60
2022/09/22 12:15:57;;;;;;;;;;;20.90;43.80;;;;;;5077824;28;19963;-60
2022/09/22 12:18:27;;;;;;;;;;;20.90;43.60;;;;;;5085611;28;19974;-60
2022/09/22 12:20:54;;;;;;;;;;;20.90;43.60;;;;;;5068819;28;19927;-61
2022/09/22 12:23:47;;;;;;;;;;;20.90;43.60;;;;;;5102559;28;19920;-60
2022/09/22 12:26:14;;;;;;;;;;;21.00;43.70;;;;;;5050180;28;19921;-60
2022/09/22 12:28:41;;;;;;;;;;;21.00;43.90;;;;;;5085684;28;19927;-60
2022/09/22 12:31:11;;;;;;;;;;;21.00;43.90;;;;;;5067059;28;20435;-61
2022/09/22 12:33:44;;;;;;;;;;;21.00;43.80;;;;;;5085272;28;19924;-61
2022/09/22 12:36:11;;;;;;;;;;;21.00;43.50;;;;;;5069872;28;20013;-60
2022/09/22 12:38:39;;;;;;;;;;;21.00;43.30;;;;;;5051565;28;19996;-61
2022/09/22 12:41:07;;;;;;;;;;;21.00;43.40;;;;;;5068638;28;19920;-62
2022/09/22 12:43:33;;;;;;;;;;;21.00;43.50;;;;;;5068554;28;19951;-60
2022/09/22 12:46:02;;;;;;;;;;;21.00;43.60;;;;;;5085126;28;20393;-61
2022/09/22 12:48:29;;;;;;;;;;;21.00;43.70;;;;;;5069247;28;19967;-60
2022/09/22 12:51:11;;;;;;;;;;;21.00;43.80;;;;;;5067321;28;19966;-60
2022/09/22 12:53:39;;;;;;;;;;;21.00;43.70;;;;;;5078857;28;19980;-60
2022/09/22 12:56:07;;;;;;;;;;;21.00;43.70;;;;;;5084412;28;19920;-61
2022/09/22 12:58:40;;;;;;;;;;;21.00;43.70;;;;;;5074768;28;20011;-60
2022/09/22 13:01:27;;;;;;;;;;;21.00;43.70;;;;;;5086065;28;19982;-59
2022/09/22 13:03:56;;;;;;;;;;;21.00;43.70;;;;;;5064496;28;19955;-60
2022/09/22 13:06:42;;;;;;;;;;;21.00;43.60;;;;;;5100060;28;20023;-60
2022/09/22 13:09:18;;;;;;;;;;;21.00;43.70;;;;;;5080024;28;19921;-61
2022/09/22 13:12:03;;;;;;;;;;;21.00;43.70;;;;;;5066016;28;20120;-61
2022/09/22 13:14:49;;;;;;;;;;;21.10;43.80;;;;;;5065005;28;20019;-60
2022/09/22 13:17:34;;;;;;;;;;;21.10;43.80;;;;;;5066475;28;19968;-61
2022/09/22 13:20:06;;;;;;;;;;;21.10;43.80;;;;;;5066092;28;20292;-57
2022/09/22 13:22:33;;;;;;;;;;;21.10;43.80;;;;;;5101451;28;20274;-60
2022/09/22 13:25:14;;;;;;;;;;;21.10;43.90;;;;;;5081472;28;19977;-60
2022/09/22 13:27:41;;;;;;;;;;;21.10;43.90;;;;;;5080819;28;19929;-59
2022/09/22 13:30:09;;;;;;;;;;;21.10;43.90;;;;;;5050648;28;20019;-59
2022/09/22 13:32:35;;;;;;;;;;;21.10;44.10;;;;;;5067406;28;20026;-59
2022/09/22 13:35:02;;;;;;;;;;;21.20;44.20;;;;;;5067119;28;19925;-59
2022/09/22 13:37:30;;;;;;;;;;;21.20;44.20;;;;;;5083367;28;19952;-57
2022/09/22 13:39:56;;;;;;;;;;;21.20;44.10;;;;;;5082570;28;20251;-58
2022/09/22 13:42:31;;;;;;;;;;;21.20;44.10;;;;;;5079409;28;19928;-62
2022/09/22 13:44:58;;;;;;;;;;;21.20;44.20;;;;;;5081875;28;19925;-60
2022/09/22 13:47:26;;;;;;;;;;;21.20;44.40;;;;;;5079981;28;19925;-62
2022/09/22 13:49:53;;;;;;;;;;;21.20;44.60;;;;;;5063894;28;19964;-59
2022/09/22 13:52:21;;;;;;;;;;;21.20;44.90;;;;;;5080357;28;19925;-59
2022/09/22 13:54:48;;;;;;;;;;;21.30;45.10;;;;;;5097931;28;19927;-60
2022/09/22 13:57:22;;;;;;;;;;;21.30;45.10;;;;;;5082791;28;19939;-62
2022/09/22 13:59:50;;;;;;;;;;;21.30;45.20;;;;;;5099060;28;20019;-61
2022/09/22 14:02:16;;;;;;;;;;;21.30;45.30;;;;;;5068432;28;20011;-65
2022/09/22 14:04:49;;;;;;;;;;;21.30;45.40;;;;;;5064442;28;20362;-71
2022/09/22 14:07:16;;;;;;;;;;;21.30;44.90;;;;;;5082661;28;19936;-71
2022/09/22 14:09:43;;;;;;;;;;;21.30;44.40;;;;;;5083811;28;19924;-70
2022/09/22 14:12:10;;;;;;;;;;;21.30;44.80;;;;;;5070638;28;19921;-70
2022/09/22 14:14:38;;;;;;;;;;;21.30;44.80;;;;;;5072006;28;19928;-70
2022/09/22 14:17:07;;;;;;;;;;;21.30;44.80;;;;;;5085186;28;19926;-70
2022/09/22 14:19:34;;;;;;;;;;;21.30;44.80;;;;;;5087373;28;19960;-72
2022/09/22 14:22:01;;;;;;;;;;;21.30;44.90;;;;;;5065371;28;19989;-66
2022/09/22 14:24:28;;;;;;;;;;;21.30;44.80;;;;;;5071845;28;19931;-70
2022/09/22 14:26:55;;;;;;;;;;;21.30;44.90;;;;;;5068755;28;19955;-66
2022/09/22 14:29:23;;;;;;;;;;;21.30;44.90;;;;;;5081713;28;19975;-68
2022/09/22 14:31:53;;;;;;;;;;;21.30;44.80;;;;;;5086923;28;20240;-65
2022/09/22 14:34:23;;;;;;;;;;;21.30;44.90;;;;;;5085677;28;20031;-67
2022/09/22 14:36:50;;;;;;;;;;;21.30;44.90;;;;;;5087413;28;19933;-65
2022/09/22 14:39:18;;;;;;;;;;;21.30;44.90;;;;;;5069563;28;20270;-68
2022/09/22 14:41:49;;;;;;;;;;;21.30;44.90;;;;;;5104186;28;19920;-65